sensor_id;sensor_type;location;lat;lon;timestamp;P1;durP1;ratioP1;P2;durP2;ratioP2
51216;SDS011;37283;49.760;8.648;2022-10-31T00:00:26;10.50;;;4.88;;
51216;SDS011;37283;49.760;8.648;2022-10-31T00:02:53;11.48;;;4.25;;
51216;SDS011;37283;49.760;8.648;2022-10-31T00:05:19;14.70;;;4.70;;
51216;SDS011;37283;49.760;8.648;2022-10-31T00:07:46;12.80;;;4.70;;
51216;SDS011;37283;49.760;8.648;2022-10-31T00:10:12;13.77;;;4.70;;
51216;SDS011;37283;49.760;8.648;2022-10-31T00:12:38;15.10;;;4.88;;
51216;SDS011;37283;49.760;8.648;2022-10-31T00:15:05;13.55;;;5.30;;
51216;SDS011;37283;49.760;8.648;2022-10-31T00:17:34;10.50;;;4.53;;
51216;SDS011;37283;49.760;8.648;2022-10-31T00:20:01;10.23;;;4.38;;
51216;SDS011;37283;49.760;8.648;2022-10-31T00:22:27;11.05;;;4.55;;
51216;SDS011;37283;49.760;8.648;2022-10-31T00:24:54;11.45;;;4.55;;
51216;SDS011;37283;49.760;8.648;2022-10-31T00:27:20;11.30;;;4.70;;
51216;SDS011;37283;49.760;8.648;2022-10-31T00:29:46;13.43;;;4.57;;
51216;SDS011;37283;49.760;8.648;2022-10-31T00:32:13;13.68;;;4.57;;
51216;SDS011;37283;49.760;8.648;2022-10-31T00:34:39;14.18;;;5.03;;
51216;SDS011;37283;49.760;8.648;2022-10-31T00:37:06;10.48;;;4.80;;
51216;SDS011;37283;49.760;8.648;2022-10-31T00:39:34;11.52;;;4.57;;
51216;SDS011;37283;49.760;8.648;2022-10-31T00:42:00;15.98;;;5.05;;
51216;SDS011;37283;49.760;8.648;2022-10-31T00:44:28;9.65;;;4.55;;
51216;SDS011;37283;49.760;8.648;2022-10-31T00:46:54;12.07;;;4.72;;
51216;SDS011;37283;49.760;8.648;2022-10-31T00:49:21;10.38;;;4.65;;
51216;SDS011;37283;49.760;8.648;2022-10-31T00:51:48;10.35;;;4.70;;
51216;SDS011;37283;49.760;8.648;2022-10-31T00:54:14;8.45;;;4.60;;
51216;SDS011;37283;49.760;8.648;2022-10-31T00:56:41;13.40;;;4.70;;
51216;SDS011;37283;49.760;8.648;2022-10-31T00:59:07;10.43;;;4.90;;
51216;SDS011;37283;49.760;8.648;2022-10-31T01:01:34;10.77;;;4.38;;
51216;SDS011;37283;49.760;8.648;2022-10-31T01:04:01;12.27;;;4.80;;
51216;SDS011;37283;49.760;8.648;2022-10-31T01:06:27;8.77;;;4.72;;
51216;SDS011;37283;49.760;8.648;2022-10-31T01:08:55;15.27;;;4.87;;
51216;SDS011;37283;49.760;8.648;2022-10-31T01:11:22;13.65;;;4.63;;
51216;SDS011;37283;49.760;8.648;2022-10-31T01:13:50;11.07;;;4.68;;
51216;SDS011;37283;49.760;8.648;2022-10-31T01:16:19;11.02;;;4.25;;
51216;SDS011;37283;49.760;8.648;2022-10-31T01:18:48;10.95;;;4.53;;
51216;SDS011;37283;49.760;8.648;2022-10-31T01:21:17;15.55;;;5.28;;
51216;SDS011;37283;49.760;8.648;2022-10-31T01:23:47;10.10;;;4.60;;
51216;SDS011;37283;49.760;8.648;2022-10-31T01:26:15;12.05;;;5.07;;
51216;SDS011;37283;49.760;8.648;2022-10-31T01:29:05;8.82;;;4.28;;
51216;SDS011;37283;49.760;8.648;2022-10-31T01:31:35;13.90;;;4.60;;
51216;SDS011;37283;49.760;8.648;2022-10-31T01:34:02;13.20;;;4.82;;
51216;SDS011;37283;49.760;8.648;2022-10-31T01:36:30;12.38;;;4.68;;
51216;SDS011;37283;49.760;8.648;2022-10-31T01:41:27;13.93;;;4.88;;
51216;SDS011;37283;49.760;8.648;2022-10-31T01:44:00;10.38;;;4.35;;
51216;SDS011;37283;49.760;8.648;2022-10-31T01:46:35;10.30;;;4.70;;
51216;SDS011;37283;49.760;8.648;2022-10-31T01:49:04;14.90;;;5.45;;
51216;SDS011;37283;49.760;8.648;2022-10-31T01:51:33;11.88;;;4.40;;
51216;SDS011;37283;49.760;8.648;2022-10-31T01:54:04;12.85;;;4.57;;
51216;SDS011;37283;49.760;8.648;2022-10-31T01:56:32;14.20;;;4.63;;
51216;SDS011;37283;49.760;8.648;2022-10-31T01:59:00;11.68;;;5.03;;
51216;SDS011;37283;49.760;8.648;2022-10-31T02:01:28;15.13;;;5.18;;
51216;SDS011;37283;49.760;8.648;2022-10-31T02:03:55;12.18;;;5.07;;
51216;SDS011;37283;49.760;8.648;2022-10-31T02:06:33;11.77;;;4.63;;
51216;SDS011;37283;49.760;8.648;2022-10-31T02:09:05;15.32;;;4.93;;
51216;SDS011;37283;49.760;8.648;2022-10-31T02:11:32;14.80;;;4.75;;
51216;SDS011;37283;49.760;8.648;2022-10-31T02:14:01;10.00;;;4.32;;
51216;SDS011;37283;49.760;8.648;2022-10-31T02:16:28;14.45;;;4.30;;
51216;SDS011;37283;49.760;8.648;2022-10-31T02:18:55;13.77;;;5.35;;
51216;SDS011;37283;49.760;8.648;2022-10-31T02:21:32;12.18;;;4.85;;
51216;SDS011;37283;49.760;8.648;2022-10-31T02:32:30;10.07;;;4.20;;
51216;SDS011;37283;49.760;8.648;2022-10-31T02:35:24;14.45;;;5.70;;
51216;SDS011;37283;49.760;8.648;2022-10-31T02:40:34;15.88;;;5.38;;
51216;SDS011;37283;49.760;8.648;2022-10-31T02:49:00;12.40;;;5.00;;
51216;SDS011;37283;49.760;8.648;2022-10-31T02:51:31;12.45;;;4.72;;
51216;SDS011;37283;49.760;8.648;2022-10-31T02:53:57;14.52;;;4.88;;
51216;SDS011;37283;49.760;8.648;2022-10-31T02:56:24;8.68;;;4.55;;
51216;SDS011;37283;49.760;8.648;2022-10-31T02:58:53;14.80;;;4.68;;
51216;SDS011;37283;49.760;8.648;2022-10-31T03:01:31;9.95;;;4.55;;
51216;SDS011;37283;49.760;8.648;2022-10-31T03:12:56;8.77;;;4.40;;
51216;SDS011;37283;49.760;8.648;2022-10-31T03:15:27;12.20;;;4.45;;
51216;SDS011;37283;49.760;8.648;2022-10-31T03:18:04;8.65;;;4.13;;
51216;SDS011;37283;49.760;8.648;2022-10-31T03:20:36;16.67;;;4.80;;
51216;SDS011;37283;49.760;8.648;2022-10-31T03:23:07;12.77;;;4.55;;
51216;SDS011;37283;49.760;8.648;2022-10-31T03:25:37;11.82;;;4.70;;
51216;SDS011;37283;49.760;8.648;2022-10-31T03:30:33;14.02;;;5.20;;
51216;SDS011;37283;49.760;8.648;2022-10-31T03:33:03;17.00;;;5.07;;
51216;SDS011;37283;49.760;8.648;2022-10-31T03:35:31;11.63;;;4.90;;
51216;SDS011;37283;49.760;8.648;2022-10-31T03:38:01;11.18;;;5.10;;
51216;SDS011;37283;49.760;8.648;2022-10-31T03:40:33;10.13;;;4.88;;
51216;SDS011;37283;49.760;8.648;2022-10-31T03:43:03;9.90;;;4.82;;
51216;SDS011;37283;49.760;8.648;2022-10-31T03:45:35;13.27;;;4.05;;
51216;SDS011;37283;49.760;8.648;2022-10-31T03:48:04;14.55;;;4.78;;
51216;SDS011;37283;49.760;8.648;2022-10-31T03:50:40;10.63;;;4.43;;
51216;SDS011;37283;49.760;8.648;2022-10-31T03:53:26;11.40;;;4.43;;
51216;SDS011;37283;49.760;8.648;2022-10-31T03:55:59;10.55;;;4.43;;
51216;SDS011;37283;49.760;8.648;2022-10-31T03:58:35;8.85;;;3.95;;
51216;SDS011;37283;49.760;8.648;2022-10-31T04:01:05;6.65;;;3.78;;
51216;SDS011;37283;49.760;8.648;2022-10-31T04:03:35;9.48;;;4.53;;
51216;SDS011;37283;49.760;8.648;2022-10-31T04:06:05;12.55;;;4.72;;
51216;SDS011;37283;49.760;8.648;2022-10-31T04:08:38;9.15;;;3.58;;
51216;SDS011;37283;49.760;8.648;2022-10-31T04:11:12;10.25;;;4.40;;
51216;SDS011;37283;49.760;8.648;2022-10-31T04:13:41;9.00;;;4.22;;
51216;SDS011;37283;49.760;8.648;2022-10-31T04:16:13;12.77;;;4.22;;
51216;SDS011;37283;49.760;8.648;2022-10-31T04:18:43;9.52;;;3.63;;
51216;SDS011;37283;49.760;8.648;2022-10-31T04:21:10;7.00;;;3.72;;
51216;SDS011;37283;49.760;8.648;2022-10-31T04:23:36;11.68;;;4.15;;
51216;SDS011;37283;49.760;8.648;2022-10-31T04:26:12;9.30;;;4.10;;
51216;SDS011;37283;49.760;8.648;2022-10-31T04:28:42;11.93;;;4.82;;
51216;SDS011;37283;49.760;8.648;2022-10-31T04:31:11;12.88;;;4.75;;
51216;SDS011;37283;49.760;8.648;2022-10-31T04:33:38;12.70;;;4.45;;
51216;SDS011;37283;49.760;8.648;2022-10-31T04:36:04;11.25;;;4.32;;
51216;SDS011;37283;49.760;8.648;2022-10-31T04:38:31;14.02;;;4.40;;
51216;SDS011;37283;49.760;8.648;2022-10-31T04:40:57;12.30;;;4.75;;
51216;SDS011;37283;49.760;8.648;2022-10-31T04:43:43;12.38;;;4.38;;
51216;SDS011;37283;49.760;8.648;2022-10-31T04:46:09;8.32;;;4.22;;
51216;SDS011;37283;49.760;8.648;2022-10-31T04:48:36;17.30;;;5.07;;
51216;SDS011;37283;49.760;8.648;2022-10-31T04:51:04;9.75;;;4.55;;
51216;SDS011;37283;49.760;8.648;2022-10-31T04:53:31;12.88;;;5.00;;
51216;SDS011;37283;49.760;8.648;2022-10-31T04:56:20;11.18;;;5.22;;
51216;SDS011;37283;49.760;8.648;2022-10-31T04:58:52;10.95;;;4.50;;
51216;SDS011;37283;49.760;8.648;2022-10-31T05:01:19;9.68;;;4.55;;
51216;SDS011;37283;49.760;8.648;2022-10-31T05:03:48;11.73;;;4.53;;
51216;SDS011;37283;49.760;8.648;2022-10-31T05:06:17;8.88;;;4.15;;
51216;SDS011;37283;49.760;8.648;2022-10-31T05:11:12;10.70;;;4.20;;
51216;SDS011;37283;49.760;8.648;2022-10-31T05:13:39;9.20;;;4.60;;
51216;SDS011;37283;49.760;8.648;2022-10-31T05:16:11;12.32;;;4.60;;
51216;SDS011;37283;49.760;8.648;2022-10-31T05:18:56;9.90;;;4.40;;
51216;SDS011;37283;49.760;8.648;2022-10-31T05:21:45;12.80;;;4.68;;
51216;SDS011;37283;49.760;8.648;2022-10-31T05:24:11;8.52;;;4.15;;
51216;SDS011;37283;49.760;8.648;2022-10-31T05:26:42;16.50;;;4.50;;
51216;SDS011;37283;49.760;8.648;2022-10-31T05:29:09;10.10;;;4.72;;
51216;SDS011;37283;49.760;8.648;2022-10-31T05:31:37;8.13;;;4.97;;
51216;SDS011;37283;49.760;8.648;2022-10-31T05:34:05;13.93;;;5.00;;
51216;SDS011;37283;49.760;8.648;2022-10-31T05:36:44;10.32;;;5.13;;
51216;SDS011;37283;49.760;8.648;2022-10-31T05:39:14;11.15;;;5.15;;
51216;SDS011;37283;49.760;8.648;2022-10-31T05:41:44;14.18;;;5.20;;
51216;SDS011;37283;49.760;8.648;2022-10-31T05:44:18;11.25;;;5.35;;
51216;SDS011;37283;49.760;8.648;2022-10-31T05:47:05;13.90;;;5.53;;
51216;SDS011;37283;49.760;8.648;2022-10-31T05:49:50;11.18;;;5.60;;
51216;SDS011;37283;49.760;8.648;2022-10-31T05:52:35;13.20;;;5.32;;
51216;SDS011;37283;49.760;8.648;2022-10-31T05:55:12;18.73;;;5.60;;
51216;SDS011;37283;49.760;8.648;2022-10-31T05:57:47;15.82;;;5.20;;
51216;SDS011;37283;49.760;8.648;2022-10-31T06:00:14;12.95;;;5.03;;
51216;SDS011;37283;49.760;8.648;2022-10-31T06:02:49;11.20;;;5.00;;
51216;SDS011;37283;49.760;8.648;2022-10-31T06:05:36;10.70;;;5.00;;
51216;SDS011;37283;49.760;8.648;2022-10-31T06:08:02;13.38;;;4.85;;
51216;SDS011;37283;49.760;8.648;2022-10-31T06:10:29;10.00;;;4.85;;
51216;SDS011;37283;49.760;8.648;2022-10-31T06:12:56;10.10;;;5.07;;
51216;SDS011;37283;49.760;8.648;2022-10-31T06:15:32;10.48;;;5.05;;
51216;SDS011;37283;49.760;8.648;2022-10-31T06:18:03;10.43;;;4.88;;
51216;SDS011;37283;49.760;8.648;2022-10-31T06:20:43;12.32;;;5.75;;
51216;SDS011;37283;49.760;8.648;2022-10-31T06:23:10;10.15;;;5.47;;
51216;SDS011;37283;49.760;8.648;2022-10-31T06:25:39;10.43;;;4.72;;
51216;SDS011;37283;49.760;8.648;2022-10-31T06:28:07;9.15;;;4.60;;
51216;SDS011;37283;49.760;8.648;2022-10-31T06:30:53;12.25;;;5.38;;
51216;SDS011;37283;49.760;8.648;2022-10-31T06:33:21;12.02;;;4.55;;
51216;SDS011;37283;49.760;8.648;2022-10-31T06:35:59;10.18;;;5.03;;
51216;SDS011;37283;49.760;8.648;2022-10-31T06:38:27;12.15;;;5.00;;
51216;SDS011;37283;49.760;8.648;2022-10-31T06:40:54;12.38;;;4.45;;
51216;SDS011;37283;49.760;8.648;2022-10-31T06:43:24;7.97;;;4.30;;
51216;SDS011;37283;49.760;8.648;2022-10-31T06:46:08;13.27;;;4.57;;
51216;SDS011;37283;49.760;8.648;2022-10-31T06:48:42;11.07;;;4.43;;
51216;SDS011;37283;49.760;8.648;2022-10-31T06:51:19;12.50;;;4.90;;
51216;SDS011;37283;49.760;8.648;2022-10-31T06:56:17;12.55;;;4.78;;
51216;SDS011;37283;49.760;8.648;2022-10-31T06:58:47;13.48;;;4.93;;
51216;SDS011;37283;49.760;8.648;2022-10-31T07:01:17;10.73;;;4.45;;
51216;SDS011;37283;49.760;8.648;2022-10-31T07:03:43;9.88;;;4.57;;
51216;SDS011;37283;49.760;8.648;2022-10-31T07:06:10;9.68;;;4.40;;
51216;SDS011;37283;49.760;8.648;2022-10-31T07:08:37;12.65;;;4.60;;
51216;SDS011;37283;49.760;8.648;2022-10-31T07:11:04;10.77;;;4.63;;
51216;SDS011;37283;49.760;8.648;2022-10-31T07:13:32;14.57;;;4.65;;
51216;SDS011;37283;49.760;8.648;2022-10-31T07:16:05;11.07;;;4.35;;
51216;SDS011;37283;49.760;8.648;2022-10-31T07:18:36;10.57;;;3.88;;
51216;SDS011;37283;49.760;8.648;2022-10-31T07:21:03;11.02;;;4.60;;
51216;SDS011;37283;49.760;8.648;2022-10-31T07:23:30;8.18;;;4.75;;
51216;SDS011;37283;49.760;8.648;2022-10-31T07:26:35;13.63;;;6.53;;
51216;SDS011;37283;49.760;8.648;2022-10-31T07:29:01;10.75;;;5.30;;
51216;SDS011;37283;49.760;8.648;2022-10-31T07:31:28;12.00;;;5.35;;
51216;SDS011;37283;49.760;8.648;2022-10-31T07:34:00;13.00;;;5.00;;
51216;SDS011;37283;49.760;8.648;2022-10-31T07:36:28;9.55;;;4.97;;
51216;SDS011;37283;49.760;8.648;2022-10-31T07:38:59;12.75;;;5.20;;
51216;SDS011;37283;49.760;8.648;2022-10-31T07:41:29;7.75;;;4.75;;
51216;SDS011;37283;49.760;8.648;2022-10-31T07:43:56;8.65;;;4.70;;
51216;SDS011;37283;49.760;8.648;2022-10-31T07:46:40;12.25;;;5.30;;
51216;SDS011;37283;49.760;8.648;2022-10-31T07:49:25;11.18;;;5.15;;
51216;SDS011;37283;49.760;8.648;2022-10-31T07:52:10;6.43;;;4.20;;
51216;SDS011;37283;49.760;8.648;2022-10-31T07:54:56;15.85;;;6.10;;
51216;SDS011;37283;49.760;8.648;2022-10-31T07:57:22;12.13;;;5.85;;
51216;SDS011;37283;49.760;8.648;2022-10-31T07:59:50;12.55;;;5.32;;
51216;SDS011;37283;49.760;8.648;2022-10-31T08:02:17;10.57;;;5.35;;
51216;SDS011;37283;49.760;8.648;2022-10-31T08:10:15;11.32;;;5.70;;
51216;SDS011;37283;49.760;8.648;2022-10-31T08:12:42;10.05;;;5.95;;
51216;SDS011;37283;49.760;8.648;2022-10-31T08:15:08;13.57;;;6.00;;
51216;SDS011;37283;49.760;8.648;2022-10-31T08:17:36;10.57;;;5.78;;
51216;SDS011;37283;49.760;8.648;2022-10-31T08:20:03;12.00;;;5.82;;
51216;SDS011;37283;49.760;8.648;2022-10-31T08:22:34;11.82;;;5.93;;
51216;SDS011;37283;49.760;8.648;2022-10-31T08:25:09;12.35;;;5.43;;
51216;SDS011;37283;49.760;8.648;2022-10-31T08:27:36;13.52;;;5.25;;
51216;SDS011;37283;49.760;8.648;2022-10-31T08:30:02;13.77;;;5.95;;
51216;SDS011;37283;49.760;8.648;2022-10-31T08:32:31;13.23;;;6.22;;
51216;SDS011;37283;49.760;8.648;2022-10-31T08:35:16;13.27;;;6.53;;
51216;SDS011;37283;49.760;8.648;2022-10-31T08:38:01;14.45;;;6.63;;
51216;SDS011;37283;49.760;8.648;2022-10-31T08:40:29;13.68;;;6.68;;
51216;SDS011;37283;49.760;8.648;2022-10-31T08:43:00;16.13;;;6.72;;
51216;SDS011;37283;49.760;8.648;2022-10-31T08:45:29;15.63;;;6.75;;
51216;SDS011;37283;49.760;8.648;2022-10-31T08:47:57;15.02;;;5.95;;
51216;SDS011;37283;49.760;8.648;2022-10-31T08:50:29;15.43;;;6.18;;
51216;SDS011;37283;49.760;8.648;2022-10-31T08:53:00;10.40;;;5.93;;
51216;SDS011;37283;49.760;8.648;2022-10-31T08:55:33;10.77;;;6.40;;
51216;SDS011;37283;49.760;8.648;2022-10-31T08:58:04;9.93;;;6.22;;
51216;SDS011;37283;49.760;8.648;2022-10-31T09:00:41;10.45;;;6.70;;
51216;SDS011;37283;49.760;8.648;2022-10-31T09:03:24;11.23;;;7.22;;
51216;SDS011;37283;49.760;8.648;2022-10-31T09:05:57;13.63;;;7.25;;
51216;SDS011;37283;49.760;8.648;2022-10-31T09:08:26;10.68;;;7.20;;
51216;SDS011;37283;49.760;8.648;2022-10-31T09:10:57;13.05;;;6.90;;
51216;SDS011;37283;49.760;8.648;2022-10-31T09:13:44;11.10;;;6.60;;
51216;SDS011;37283;49.760;8.648;2022-10-31T09:16:29;10.10;;;6.70;;
51216;SDS011;37283;49.760;8.648;2022-10-31T09:18:55;10.70;;;7.18;;
51216;SDS011;37283;49.760;8.648;2022-10-31T09:21:22;13.32;;;6.97;;
51216;SDS011;37283;49.760;8.648;2022-10-31T09:23:49;11.02;;;6.97;;
51216;SDS011;37283;49.760;8.648;2022-10-31T09:26:15;12.00;;;7.53;;
51216;SDS011;37283;49.760;8.648;2022-10-31T09:28:54;11.70;;;6.97;;
51216;SDS011;37283;49.760;8.648;2022-10-31T09:31:22;12.77;;;6.82;;
51216;SDS011;37283;49.760;8.648;2022-10-31T09:33:54;12.95;;;7.20;;
51216;SDS011;37283;49.760;8.648;2022-10-31T09:36:42;12.48;;;7.03;;
51216;SDS011;37283;49.760;8.648;2022-10-31T09:39:17;9.30;;;7.15;;
51216;SDS011;37283;49.760;8.648;2022-10-31T09:44:52;11.93;;;7.05;;
51216;SDS011;37283;49.760;8.648;2022-10-31T09:53:34;12.65;;;7.30;;
51216;SDS011;37283;49.760;8.648;2022-10-31T09:56:06;15.18;;;8.10;;
51216;SDS011;37283;49.760;8.648;2022-10-31T09:58:38;11.77;;;7.45;;
51216;SDS011;37283;49.760;8.648;2022-10-31T10:01:11;10.90;;;7.28;;
51216;SDS011;37283;49.760;8.648;2022-10-31T10:03:46;11.75;;;7.55;;
51216;SDS011;37283;49.760;8.648;2022-10-31T10:06:35;17.05;;;7.53;;
51216;SDS011;37283;49.760;8.648;2022-10-31T10:09:24;13.63;;;8.07;;
51216;SDS011;37283;49.760;8.648;2022-10-31T10:25:39;16.15;;;8.57;;
51216;SDS011;37283;49.760;8.648;2022-10-31T10:28:09;11.98;;;7.97;;
51216;SDS011;37283;49.760;8.648;2022-10-31T10:30:53;16.30;;;8.20;;
51216;SDS011;37283;49.760;8.648;2022-10-31T10:33:25;19.67;;;8.63;;
51216;SDS011;37283;49.760;8.648;2022-10-31T10:36:00;15.95;;;8.32;;
51216;SDS011;37283;49.760;8.648;2022-10-31T10:41:16;13.25;;;8.27;;
51216;SDS011;37283;49.760;8.648;2022-10-31T10:43:44;15.05;;;8.65;;
51216;SDS011;37283;49.760;8.648;2022-10-31T10:46:35;13.23;;;8.52;;
51216;SDS011;37283;49.760;8.648;2022-10-31T10:49:30;12.40;;;7.97;;
51216;SDS011;37283;49.760;8.648;2022-10-31T10:55:08;21.15;;;8.98;;
51216;SDS011;37283;49.760;8.648;2022-10-31T10:57:50;13.45;;;8.80;;
51216;SDS011;37283;49.760;8.648;2022-10-31T11:00:21;18.23;;;9.60;;
51216;SDS011;37283;49.760;8.648;2022-10-31T11:02:49;19.67;;;8.55;;
51216;SDS011;37283;49.760;8.648;2022-10-31T11:05:20;14.57;;;8.57;;
51216;SDS011;37283;49.760;8.648;2022-10-31T11:07:49;13.43;;;8.48;;
51216;SDS011;37283;49.760;8.648;2022-10-31T11:10:16;13.98;;;9.48;;
51216;SDS011;37283;49.760;8.648;2022-10-31T11:12:44;20.95;;;9.00;;
51216;SDS011;37283;49.760;8.648;2022-10-31T11:15:21;15.48;;;8.68;;
51216;SDS011;37283;49.760;8.648;2022-10-31T11:17:50;17.40;;;8.73;;
51216;SDS011;37283;49.760;8.648;2022-10-31T11:22:45;15.02;;;8.18;;
51216;SDS011;37283;49.760;8.648;2022-10-31T11:25:31;14.52;;;8.30;;
51216;SDS011;37283;49.760;8.648;2022-10-31T11:27:58;12.93;;;8.15;;
51216;SDS011;37283;49.760;8.648;2022-10-31T11:30:26;13.88;;;8.48;;
51216;SDS011;37283;49.760;8.648;2022-10-31T11:32:52;12.68;;;7.80;;
51216;SDS011;37283;49.760;8.648;2022-10-31T11:35:20;15.02;;;8.68;;
51216;SDS011;37283;49.760;8.648;2022-10-31T11:37:48;13.63;;;7.70;;
51216;SDS011;37283;49.760;8.648;2022-10-31T11:40:16;13.52;;;7.45;;
51216;SDS011;37283;49.760;8.648;2022-10-31T11:42:44;17.00;;;8.25;;
51216;SDS011;37283;49.760;8.648;2022-10-31T11:45:19;12.15;;;7.97;;
51216;SDS011;37283;49.760;8.648;2022-10-31T11:47:55;16.02;;;7.93;;
51216;SDS011;37283;49.760;8.648;2022-10-31T11:50:26;12.25;;;8.48;;
51216;SDS011;37283;49.760;8.648;2022-10-31T11:52:55;14.48;;;8.20;;
51216;SDS011;37283;49.760;8.648;2022-10-31T11:55:29;13.02;;;7.55;;
51216;SDS011;37283;49.760;8.648;2022-10-31T11:58:01;16.23;;;8.10;;
51216;SDS011;37283;49.760;8.648;2022-10-31T12:00:29;13.15;;;8.05;;
51216;SDS011;37283;49.760;8.648;2022-10-31T12:03:13;15.52;;;8.20;;
51216;SDS011;37283;49.760;8.648;2022-10-31T12:08:23;14.75;;;8.38;;
51216;SDS011;37283;49.760;8.648;2022-10-31T12:10:59;13.90;;;7.95;;
51216;SDS011;37283;49.760;8.648;2022-10-31T12:13:35;15.45;;;8.18;;
51216;SDS011;37283;49.760;8.648;2022-10-31T12:19:16;12.30;;;7.50;;
51216;SDS011;37283;49.760;8.648;2022-10-31T12:24:49;15.75;;;7.82;;
51216;SDS011;37283;49.760;8.648;2022-10-31T12:30:17;11.88;;;7.97;;
51216;SDS011;37283;49.760;8.648;2022-10-31T12:38:24;15.23;;;8.87;;
51216;SDS011;37283;49.760;8.648;2022-10-31T12:57:52;12.13;;;7.35;;
51216;SDS011;37283;49.760;8.648;2022-10-31T13:00:20;17.17;;;8.15;;
51216;SDS011;37283;49.760;8.648;2022-10-31T13:05:54;12.18;;;7.82;;
51216;SDS011;37283;49.760;8.648;2022-10-31T13:08:26;15.45;;;7.43;;
51216;SDS011;37283;49.760;8.648;2022-10-31T13:11:09;13.68;;;8.13;;
51216;SDS011;37283;49.760;8.648;2022-10-31T13:13:40;17.65;;;8.52;;
51216;SDS011;37283;49.760;8.648;2022-10-31T13:21:30;14.20;;;7.10;;
51216;SDS011;37283;49.760;8.648;2022-10-31T13:24:01;17.08;;;8.20;;
51216;SDS011;37283;49.760;8.648;2022-10-31T13:26:36;14.15;;;7.45;;
51216;SDS011;37283;49.760;8.648;2022-10-31T13:32:05;15.43;;;7.97;;
51216;SDS011;37283;49.760;8.648;2022-10-31T13:37:12;13.85;;;8.07;;
51216;SDS011;37283;49.760;8.648;2022-10-31T13:45:18;15.57;;;6.22;;
51216;SDS011;37283;49.760;8.648;2022-10-31T13:50:57;15.35;;;6.95;;
51216;SDS011;37283;49.760;8.648;2022-10-31T13:53:36;15.25;;;6.57;;
51216;SDS011;37283;49.760;8.648;2022-10-31T13:58:42;12.93;;;7.03;;
51216;SDS011;37283;49.760;8.648;2022-10-31T14:01:31;15.27;;;6.75;;
51216;SDS011;37283;49.760;8.648;2022-10-31T14:04:03;12.80;;;5.78;;
51216;SDS011;37283;49.760;8.648;2022-10-31T14:07:05;11.23;;;6.28;;
51216;SDS011;37283;49.760;8.648;2022-10-31T14:12:00;16.38;;;6.30;;
51216;SDS011;37283;49.760;8.648;2022-10-31T14:14:33;13.95;;;6.18;;
51216;SDS011;37283;49.760;8.648;2022-10-31T14:17:15;15.05;;;7.07;;
51216;SDS011;37283;49.760;8.648;2022-10-31T14:20:00;12.48;;;5.72;;
51216;SDS011;37283;49.760;8.648;2022-10-31T14:22:36;11.25;;;5.53;;
51216;SDS011;37283;49.760;8.648;2022-10-31T14:28:20;17.30;;;6.20;;
51216;SDS011;37283;49.760;8.648;2022-10-31T14:30:52;12.85;;;6.18;;
51216;SDS011;37283;49.760;8.648;2022-10-31T14:33:20;15.43;;;6.15;;
51216;SDS011;37283;49.760;8.648;2022-10-31T14:35:54;13.57;;;6.93;;
51216;SDS011;37283;49.760;8.648;2022-10-31T14:41:18;14.63;;;6.90;;
51216;SDS011;37283;49.760;8.648;2022-10-31T14:43:59;14.65;;;6.97;;
51216;SDS011;37283;49.760;8.648;2022-10-31T14:49:57;15.48;;;7.63;;
51216;SDS011;37283;49.760;8.648;2022-10-31T14:52:31;13.40;;;6.93;;
51216;SDS011;37283;49.760;8.648;2022-10-31T14:54:58;14.95;;;7.38;;
51216;SDS011;37283;49.760;8.648;2022-10-31T14:57:30;16.33;;;7.13;;
51216;SDS011;37283;49.760;8.648;2022-10-31T15:00:00;13.93;;;7.32;;
51216;SDS011;37283;49.760;8.648;2022-10-31T15:02:31;17.77;;;6.10;;
51216;SDS011;37283;49.760;8.648;2022-10-31T15:05:06;12.40;;;6.50;;
51216;SDS011;37283;49.760;8.648;2022-10-31T15:07:34;20.02;;;6.13;;
51216;SDS011;37283;49.760;8.648;2022-10-31T15:10:15;15.80;;;5.78;;
51216;SDS011;37283;49.760;8.648;2022-10-31T15:12:46;12.07;;;5.78;;
51216;SDS011;37283;49.760;8.648;2022-10-31T15:15:18;14.07;;;6.18;;
51216;SDS011;37283;49.760;8.648;2022-10-31T15:17:57;16.25;;;6.43;;
51216;SDS011;37283;49.760;8.648;2022-10-31T15:20:26;12.83;;;6.33;;
51216;SDS011;37283;49.760;8.648;2022-10-31T15:22:55;13.32;;;5.95;;
51216;SDS011;37283;49.760;8.648;2022-10-31T15:25:24;13.80;;;5.95;;
51216;SDS011;37283;49.760;8.648;2022-10-31T15:27:52;15.35;;;5.43;;
51216;SDS011;37283;49.760;8.648;2022-10-31T15:30:26;17.15;;;6.25;;
51216;SDS011;37283;49.760;8.648;2022-10-31T15:32:53;15.77;;;5.80;;
51216;SDS011;37283;49.760;8.648;2022-10-31T15:35:28;12.90;;;6.15;;
51216;SDS011;37283;49.760;8.648;2022-10-31T15:37:56;15.90;;;5.80;;
51216;SDS011;37283;49.760;8.648;2022-10-31T15:40:25;12.02;;;6.38;;
51216;SDS011;37283;49.760;8.648;2022-10-31T15:45:28;13.13;;;5.63;;
51216;SDS011;37283;49.760;8.648;2022-10-31T15:48:00;15.25;;;6.43;;
51216;SDS011;37283;49.760;8.648;2022-10-31T15:53:12;14.88;;;6.25;;
51216;SDS011;37283;49.760;8.648;2022-10-31T15:55:57;12.80;;;5.72;;
51216;SDS011;37283;49.760;8.648;2022-10-31T15:58:25;13.85;;;5.75;;
51216;SDS011;37283;49.760;8.648;2022-10-31T16:00:57;18.88;;;6.78;;
51216;SDS011;37283;49.760;8.648;2022-10-31T16:03:28;15.73;;;5.82;;
51216;SDS011;37283;49.760;8.648;2022-10-31T16:05:57;20.75;;;11.85;;
51216;SDS011;37283;49.760;8.648;2022-10-31T16:08:31;17.52;;;8.88;;
51216;SDS011;37283;49.760;8.648;2022-10-31T16:11:14;17.25;;;6.80;;
51216;SDS011;37283;49.760;8.648;2022-10-31T16:16:21;13.82;;;6.90;;
51216;SDS011;37283;49.760;8.648;2022-10-31T16:19:01;13.13;;;6.30;;
51216;SDS011;37283;49.760;8.648;2022-10-31T16:21:30;13.55;;;6.78;;
51216;SDS011;37283;49.760;8.648;2022-10-31T16:24:02;15.68;;;6.13;;
51216;SDS011;37283;49.760;8.648;2022-10-31T16:26:50;8.93;;;6.07;;
51216;SDS011;37283;49.760;8.648;2022-10-31T16:29:32;10.98;;;5.95;;
51216;SDS011;37283;49.760;8.648;2022-10-31T16:32:00;12.15;;;5.80;;
51216;SDS011;37283;49.760;8.648;2022-10-31T16:34:27;13.68;;;5.45;;
51216;SDS011;37283;49.760;8.648;2022-10-31T16:36:53;9.82;;;5.18;;
51216;SDS011;37283;49.760;8.648;2022-10-31T16:39:20;11.68;;;4.78;;
51216;SDS011;37283;49.760;8.648;2022-10-31T16:41:48;11.85;;;4.85;;
51216;SDS011;37283;49.760;8.648;2022-10-31T16:44:23;12.30;;;4.70;;
51216;SDS011;37283;49.760;8.648;2022-10-31T16:47:07;11.60;;;4.90;;
51216;SDS011;37283;49.760;8.648;2022-10-31T16:49:41;15.25;;;4.20;;
51216;SDS011;37283;49.760;8.648;2022-10-31T16:52:08;11.02;;;4.13;;
51216;SDS011;37283;49.760;8.648;2022-10-31T16:54:34;11.10;;;4.93;;
51216;SDS011;37283;49.760;8.648;2022-10-31T16:57:01;8.23;;;4.55;;
51216;SDS011;37283;49.760;8.648;2022-10-31T16:59:29;12.38;;;5.63;;
51216;SDS011;37283;49.760;8.648;2022-10-31T17:01:56;10.20;;;4.30;;
51216;SDS011;37283;49.760;8.648;2022-10-31T17:04:23;10.10;;;4.40;;
51216;SDS011;37283;49.760;8.648;2022-10-31T17:06:49;9.40;;;4.78;;
51216;SDS011;37283;49.760;8.648;2022-10-31T17:09:16;11.60;;;5.30;;
51216;SDS011;37283;49.760;8.648;2022-10-31T17:11:44;12.82;;;5.10;;
51216;SDS011;37283;49.760;8.648;2022-10-31T17:14:15;12.25;;;4.80;;
51216;SDS011;37283;49.760;8.648;2022-10-31T17:16:42;13.32;;;5.63;;
51216;SDS011;37283;49.760;8.648;2022-10-31T17:19:12;12.45;;;6.10;;
51216;SDS011;37283;49.760;8.648;2022-10-31T17:21:38;14.20;;;7.53;;
51216;SDS011;37283;49.760;8.648;2022-10-31T17:24:06;13.45;;;7.07;;
51216;SDS011;37283;49.760;8.648;2022-10-31T17:26:34;13.55;;;6.13;;
51216;SDS011;37283;49.760;8.648;2022-10-31T17:29:00;14.07;;;7.45;;
51216;SDS011;37283;49.760;8.648;2022-10-31T17:31:29;15.25;;;7.00;;
51216;SDS011;37283;49.760;8.648;2022-10-31T17:33:57;10.88;;;5.57;;